Elsberry, Missouri
Current Conditions -  °F | °C
As of 9:54 AM on Friday 28 Nov 2014 (Local Time) from KSET Reporting Station
Clear Clear  
Wind Chill: 30°   Ceiling: Unl
Heat Index: 36°   Visibility: 8mi
Dew Point: 29°   Wind: 8mph
Humidity: 76%   Direction: 140°SE
Pressure: 30.17"   Gusts: NA
Location:  39.17°N, 90.78°W
Report Text: KSET 281554Z AUTO 14007KT 8SM CLR 02/M02 A3017 RMK AO2 SLP221 T00221017
Loading
Personal Weather Stations






























Interactive Weather Map New forecast layout! Learn more

10-Day Weather Forecast

Advertisements
Track Severe Weather on mobile